Great Falls, Montana
Current Conditions -  °F | °C
As of 5:28 PM on Wednesday 26 Nov 2014 (Local Time) from KGTF Reporting Station
Haze Haze  
Wind Chill: 21°   Ceiling: 200
Heat Index: 28°   Visibility: 0.5mi
Dew Point: 28°   Wind: 7mph
Humidity: 100%   Direction: 70°ENE
Pressure: 30.07"   Gusts: NA
Location:  47.51°N, 111.3°W
Report Text: KGTF 270028Z 07006KT 1/2SM BR BKN002 M02/M02 A3007 RMK AO2 SFC VIS 10
Loading
Personal Weather Stations






























Interactive Weather Map New forecast layout! Learn more

10-Day Weather Forecast

Advertisements
Track Severe Weather on mobile